sensor_id;sensor_type;location;lat;lon;timestamp;P1;durP1;ratioP1;P2;durP2;ratioP2
2111;SDS011;1062;52.538;13.400;2023-12-07T00:00:31;25.97;;;17.00;;
2111;SDS011;1062;52.538;13.400;2023-12-07T00:02:57;23.20;;;16.63;;
2111;SDS011;1062;52.538;13.400;2023-12-07T00:05:24;24.60;;;17.80;;
2111;SDS011;1062;52.538;13.400;2023-12-07T00:07:50;27.27;;;16.40;;
2111;SDS011;1062;52.538;13.400;2023-12-07T00:10:15;30.00;;;17.60;;
2111;SDS011;1062;52.538;13.400;2023-12-07T00:12:41;26.90;;;18.70;;
2111;SDS011;1062;52.538;13.400;2023-12-07T00:15:07;31.10;;;17.87;;
2111;SDS011;1062;52.538;13.400;2023-12-07T00:17:33;24.87;;;17.07;;
2111;SDS011;1062;52.538;13.400;2023-12-07T00:19:58;28.33;;;17.10;;
2111;SDS011;1062;52.538;13.400;2023-12-07T00:22:24;26.97;;;16.77;;
2111;SDS011;1062;52.538;13.400;2023-12-07T00:24:51;22.77;;;14.97;;
2111;SDS011;1062;52.538;13.400;2023-12-07T00:27:17;26.53;;;15.90;;
2111;SDS011;1062;52.538;13.400;2023-12-07T00:29:43;26.03;;;16.47;;
2111;SDS011;1062;52.538;13.400;2023-12-07T00:32:09;23.70;;;16.57;;
2111;SDS011;1062;52.538;13.400;2023-12-07T00:34:34;24.03;;;16.20;;
2111;SDS011;1062;52.538;13.400;2023-12-07T00:37:00;26.60;;;17.17;;
2111;SDS011;1062;52.538;13.400;2023-12-07T00:39:25;25.07;;;17.20;;
2111;SDS011;1062;52.538;13.400;2023-12-07T00:41:51;23.63;;;16.50;;
2111;SDS011;1062;52.538;13.400;2023-12-07T00:44:17;22.67;;;16.13;;
2111;SDS011;1062;52.538;13.400;2023-12-07T00:46:43;24.23;;;17.33;;
2111;SDS011;1062;52.538;13.400;2023-12-07T00:49:09;23.23;;;16.57;;
2111;SDS011;1062;52.538;13.400;2023-12-07T00:51:34;24.10;;;15.47;;
2111;SDS011;1062;52.538;13.400;2023-12-07T00:54:00;24.47;;;17.60;;
2111;SDS011;1062;52.538;13.400;2023-12-07T00:56:26;26.83;;;17.30;;
2111;SDS011;1062;52.538;13.400;2023-12-07T00:58:52;24.00;;;17.10;;
2111;SDS011;1062;52.538;13.400;2023-12-07T01:01:17;31.60;;;16.67;;
2111;SDS011;1062;52.538;13.400;2023-12-07T01:03:43;21.60;;;17.23;;
2111;SDS011;1062;52.538;13.400;2023-12-07T01:06:09;25.20;;;16.70;;
2111;SDS011;1062;52.538;13.400;2023-12-07T01:08:36;24.70;;;18.00;;
2111;SDS011;1062;52.538;13.400;2023-12-07T01:11:02;25.47;;;16.70;;
2111;SDS011;1062;52.538;13.400;2023-12-07T01:13:29;23.17;;;14.23;;
2111;SDS011;1062;52.538;13.400;2023-12-07T01:15:55;28.07;;;18.93;;
2111;SDS011;1062;52.538;13.400;2023-12-07T01:18:21;24.33;;;17.00;;
2111;SDS011;1062;52.538;13.400;2023-12-07T01:20:47;25.53;;;17.07;;
2111;SDS011;1062;52.538;13.400;2023-12-07T01:23:13;24.13;;;17.03;;
2111;SDS011;1062;52.538;13.400;2023-12-07T01:25:39;27.20;;;17.57;;
2111;SDS011;1062;52.538;13.400;2023-12-07T01:28:05;25.00;;;16.50;;
2111;SDS011;1062;52.538;13.400;2023-12-07T01:30:30;24.17;;;17.53;;
2111;SDS011;1062;52.538;13.400;2023-12-07T01:32:56;23.23;;;16.70;;
2111;SDS011;1062;52.538;13.400;2023-12-07T01:35:22;23.63;;;16.67;;
2111;SDS011;1062;52.538;13.400;2023-12-07T01:37:47;22.50;;;15.17;;
2111;SDS011;1062;52.538;13.400;2023-12-07T01:40:13;24.50;;;15.50;;
2111;SDS011;1062;52.538;13.400;2023-12-07T01:42:40;27.53;;;18.60;;
2111;SDS011;1062;52.538;13.400;2023-12-07T01:45:14;23.70;;;16.60;;
2111;SDS011;1062;52.538;13.400;2023-12-07T01:47:40;26.47;;;16.10;;
2111;SDS011;1062;52.538;13.400;2023-12-07T01:50:06;24.40;;;16.47;;
2111;SDS011;1062;52.538;13.400;2023-12-07T01:52:34;25.70;;;16.83;;
2111;SDS011;1062;52.538;13.400;2023-12-07T01:55:03;21.63;;;16.50;;
2111;SDS011;1062;52.538;13.400;2023-12-07T01:57:30;25.77;;;17.00;;
2111;SDS011;1062;52.538;13.400;2023-12-07T01:59:56;22.80;;;14.50;;
2111;SDS011;1062;52.538;13.400;2023-12-07T02:02:21;25.80;;;17.33;;
2111;SDS011;1062;52.538;13.400;2023-12-07T02:04:47;22.40;;;15.70;;
2111;SDS011;1062;52.538;13.400;2023-12-07T02:07:12;22.20;;;17.33;;
2111;SDS011;1062;52.538;13.400;2023-12-07T02:09:38;24.13;;;16.73;;
2111;SDS011;1062;52.538;13.400;2023-12-07T02:12:04;21.73;;;15.67;;
2111;SDS011;1062;52.538;13.400;2023-12-07T02:14:29;25.63;;;17.23;;
2111;SDS011;1062;52.538;13.400;2023-12-07T02:16:57;27.80;;;18.50;;
2111;SDS011;1062;52.538;13.400;2023-12-07T02:19:51;28.90;;;17.17;;
2111;SDS011;1062;52.538;13.400;2023-12-07T02:22:54;27.57;;;17.03;;
2111;SDS011;1062;52.538;13.400;2023-12-07T02:25:26;27.03;;;17.07;;
2111;SDS011;1062;52.538;13.400;2023-12-07T02:27:57;22.17;;;15.70;;
2111;SDS011;1062;52.538;13.400;2023-12-07T02:30:22;21.57;;;15.57;;
2111;SDS011;1062;52.538;13.400;2023-12-07T02:32:48;21.30;;;15.67;;
2111;SDS011;1062;52.538;13.400;2023-12-07T02:35:14;25.30;;;16.50;;
2111;SDS011;1062;52.538;13.400;2023-12-07T02:37:41;22.70;;;15.63;;
2111;SDS011;1062;52.538;13.400;2023-12-07T02:40:17;23.67;;;16.53;;
2111;SDS011;1062;52.538;13.400;2023-12-07T02:42:44;25.37;;;16.43;;
2111;SDS011;1062;52.538;13.400;2023-12-07T02:45:11;26.37;;;17.50;;
2111;SDS011;1062;52.538;13.400;2023-12-07T02:47:37;21.03;;;15.47;;
2111;SDS011;1062;52.538;13.400;2023-12-07T02:50:04;24.90;;;17.20;;
2111;SDS011;1062;52.538;13.400;2023-12-07T02:52:31;23.07;;;15.57;;
2111;SDS011;1062;52.538;13.400;2023-12-07T02:54:57;24.37;;;15.30;;
2111;SDS011;1062;52.538;13.400;2023-12-07T02:57:23;28.00;;;16.50;;
2111;SDS011;1062;52.538;13.400;2023-12-07T02:59:49;21.73;;;15.43;;
2111;SDS011;1062;52.538;13.400;2023-12-07T03:02:14;20.27;;;14.60;;
2111;SDS011;1062;52.538;13.400;2023-12-07T03:04:40;24.63;;;17.27;;
2111;SDS011;1062;52.538;13.400;2023-12-07T03:07:05;22.80;;;15.00;;
2111;SDS011;1062;52.538;13.400;2023-12-07T03:09:31;23.00;;;15.83;;
2111;SDS011;1062;52.538;13.400;2023-12-07T03:11:56;26.97;;;17.90;;
2111;SDS011;1062;52.538;13.400;2023-12-07T03:14:22;25.93;;;17.10;;
2111;SDS011;1062;52.538;13.400;2023-12-07T03:16:48;23.10;;;16.57;;
2111;SDS011;1062;52.538;13.400;2023-12-07T03:19:14;19.73;;;14.60;;
2111;SDS011;1062;52.538;13.400;2023-12-07T03:21:40;26.07;;;16.27;;
2111;SDS011;1062;52.538;13.400;2023-12-07T03:24:06;26.50;;;16.57;;
2111;SDS011;1062;52.538;13.400;2023-12-07T03:26:35;24.80;;;17.17;;
2111;SDS011;1062;52.538;13.400;2023-12-07T03:29:02;23.47;;;16.67;;
2111;SDS011;1062;52.538;13.400;2023-12-07T03:31:27;24.50;;;16.70;;
2111;SDS011;1062;52.538;13.400;2023-12-07T03:33:53;25.10;;;17.67;;
2111;SDS011;1062;52.538;13.400;2023-12-07T03:36:19;26.20;;;17.27;;
2111;SDS011;1062;52.538;13.400;2023-12-07T03:38:45;26.57;;;18.40;;
2111;SDS011;1062;52.538;13.400;2023-12-07T03:41:10;28.07;;;18.33;;
2111;SDS011;1062;52.538;13.400;2023-12-07T03:43:36;27.30;;;17.23;;
2111;SDS011;1062;52.538;13.400;2023-12-07T03:46:05;24.80;;;16.67;;
2111;SDS011;1062;52.538;13.400;2023-12-07T03:48:32;27.13;;;18.27;;
2111;SDS011;1062;52.538;13.400;2023-12-07T03:50:58;27.27;;;16.97;;
2111;SDS011;1062;52.538;13.400;2023-12-07T03:53:24;26.50;;;16.23;;
2111;SDS011;1062;52.538;13.400;2023-12-07T03:55:50;30.53;;;18.30;;
2111;SDS011;1062;52.538;13.400;2023-12-07T03:58:16;27.17;;;17.03;;
2111;SDS011;1062;52.538;13.400;2023-12-07T04:00:41;27.87;;;18.47;;
2111;SDS011;1062;52.538;13.400;2023-12-07T04:03:07;32.40;;;18.13;;
2111;SDS011;1062;52.538;13.400;2023-12-07T04:05:33;32.50;;;18.50;;
2111;SDS011;1062;52.538;13.400;2023-12-07T04:07:59;36.07;;;19.70;;
2111;SDS011;1062;52.538;13.400;2023-12-07T04:10:25;35.30;;;21.67;;
2111;SDS011;1062;52.538;13.400;2023-12-07T04:12:50;30.77;;;19.20;;
2111;SDS011;1062;52.538;13.400;2023-12-07T04:15:17;31.97;;;19.50;;
2111;SDS011;1062;52.538;13.400;2023-12-07T04:17:43;29.87;;;17.83;;
2111;SDS011;1062;52.538;13.400;2023-12-07T04:20:09;31.70;;;17.57;;
2111;SDS011;1062;52.538;13.400;2023-12-07T04:22:35;34.17;;;18.13;;
2111;SDS011;1062;52.538;13.400;2023-12-07T04:25:01;33.43;;;19.13;;
2111;SDS011;1062;52.538;13.400;2023-12-07T04:27:27;31.53;;;20.93;;
2111;SDS011;1062;52.538;13.400;2023-12-07T04:29:52;36.23;;;21.10;;
2111;SDS011;1062;52.538;13.400;2023-12-07T04:32:18;29.80;;;18.13;;
2111;SDS011;1062;52.538;13.400;2023-12-07T04:34:44;32.57;;;19.47;;
2111;SDS011;1062;52.538;13.400;2023-12-07T04:37:10;26.90;;;18.07;;
2111;SDS011;1062;52.538;13.400;2023-12-07T04:39:35;30.30;;;17.93;;
2111;SDS011;1062;52.538;13.400;2023-12-07T04:42:02;31.63;;;19.03;;
2111;SDS011;1062;52.538;13.400;2023-12-07T04:44:28;29.63;;;19.40;;
2111;SDS011;1062;52.538;13.400;2023-12-07T04:46:53;26.47;;;17.20;;
2111;SDS011;1062;52.538;13.400;2023-12-07T04:49:19;35.93;;;21.20;;
2111;SDS011;1062;52.538;13.400;2023-12-07T04:51:45;30.80;;;18.50;;
2111;SDS011;1062;52.538;13.400;2023-12-07T04:54:12;34.03;;;19.03;;
2111;SDS011;1062;52.538;13.400;2023-12-07T04:56:40;29.33;;;18.37;;
2111;SDS011;1062;52.538;13.400;2023-12-07T04:59:05;31.13;;;18.40;;
2111;SDS011;1062;52.538;13.400;2023-12-07T05:01:31;31.00;;;19.13;;
2111;SDS011;1062;52.538;13.400;2023-12-07T05:03:57;31.03;;;19.97;;
2111;SDS011;1062;52.538;13.400;2023-12-07T05:06:22;33.90;;;18.97;;
2111;SDS011;1062;52.538;13.400;2023-12-07T05:08:48;26.23;;;17.63;;
2111;SDS011;1062;52.538;13.400;2023-12-07T05:11:13;29.70;;;18.50;;
2111;SDS011;1062;52.538;13.400;2023-12-07T05:13:39;36.17;;;19.77;;
2111;SDS011;1062;52.538;13.400;2023-12-07T05:16:05;32.70;;;18.70;;
2111;SDS011;1062;52.538;13.400;2023-12-07T05:18:30;31.33;;;20.17;;
2111;SDS011;1062;52.538;13.400;2023-12-07T05:20:56;29.70;;;19.23;;
2111;SDS011;1062;52.538;13.400;2023-12-07T05:23:21;30.80;;;18.57;;
2111;SDS011;1062;52.538;13.400;2023-12-07T05:25:47;33.33;;;17.27;;
2111;SDS011;1062;52.538;13.400;2023-12-07T05:28:13;31.07;;;19.90;;
2111;SDS011;1062;52.538;13.400;2023-12-07T05:30:38;28.90;;;20.23;;
2111;SDS011;1062;52.538;13.400;2023-12-07T05:33:04;29.53;;;17.77;;
2111;SDS011;1062;52.538;13.400;2023-12-07T05:35:29;27.60;;;18.33;;
2111;SDS011;1062;52.538;13.400;2023-12-07T05:37:55;31.50;;;20.20;;
2111;SDS011;1062;52.538;13.400;2023-12-07T05:40:20;30.80;;;17.90;;
2111;SDS011;1062;52.538;13.400;2023-12-07T05:42:49;30.77;;;18.23;;
2111;SDS011;1062;52.538;13.400;2023-12-07T05:45:15;32.40;;;17.83;;
2111;SDS011;1062;52.538;13.400;2023-12-07T05:47:41;36.53;;;19.10;;
2111;SDS011;1062;52.538;13.400;2023-12-07T05:50:07;33.53;;;19.53;;
2111;SDS011;1062;52.538;13.400;2023-12-07T05:52:33;37.30;;;20.30;;
2111;SDS011;1062;52.538;13.400;2023-12-07T05:54:58;32.23;;;18.80;;
2111;SDS011;1062;52.538;13.400;2023-12-07T05:57:24;31.53;;;19.13;;
2111;SDS011;1062;52.538;13.400;2023-12-07T05:59:50;32.73;;;18.33;;
2111;SDS011;1062;52.538;13.400;2023-12-07T06:02:16;37.17;;;18.93;;
2111;SDS011;1062;52.538;13.400;2023-12-07T06:04:41;33.20;;;20.30;;
2111;SDS011;1062;52.538;13.400;2023-12-07T06:07:07;40.13;;;21.30;;
2111;SDS011;1062;52.538;13.400;2023-12-07T06:09:32;31.90;;;20.37;;
2111;SDS011;1062;52.538;13.400;2023-12-07T06:11:59;33.90;;;20.40;;
2111;SDS011;1062;52.538;13.400;2023-12-07T06:14:24;39.23;;;21.00;;
2111;SDS011;1062;52.538;13.400;2023-12-07T06:16:50;33.83;;;19.30;;
2111;SDS011;1062;52.538;13.400;2023-12-07T06:19:16;39.30;;;19.93;;
2111;SDS011;1062;52.538;13.400;2023-12-07T06:21:42;46.83;;;18.73;;
2111;SDS011;1062;52.538;13.400;2023-12-07T06:24:09;34.33;;;18.43;;
2111;SDS011;1062;52.538;13.400;2023-12-07T06:26:35;29.60;;;18.40;;
2111;SDS011;1062;52.538;13.400;2023-12-07T06:29:01;35.60;;;20.37;;
2111;SDS011;1062;52.538;13.400;2023-12-07T06:31:27;38.07;;;20.40;;
2111;SDS011;1062;52.538;13.400;2023-12-07T06:33:52;30.93;;;17.37;;
2111;SDS011;1062;52.538;13.400;2023-12-07T06:36:19;35.60;;;19.67;;
2111;SDS011;1062;52.538;13.400;2023-12-07T06:38:48;36.43;;;19.83;;
2111;SDS011;1062;52.538;13.400;2023-12-07T06:41:14;36.00;;;18.27;;
2111;SDS011;1062;52.538;13.400;2023-12-07T06:43:41;33.87;;;18.13;;
2111;SDS011;1062;52.538;13.400;2023-12-07T06:46:06;32.13;;;18.07;;
2111;SDS011;1062;52.538;13.400;2023-12-07T06:48:32;32.13;;;20.50;;
2111;SDS011;1062;52.538;13.400;2023-12-07T06:50:58;35.93;;;21.30;;
2111;SDS011;1062;52.538;13.400;2023-12-07T06:53:24;35.53;;;19.37;;
2111;SDS011;1062;52.538;13.400;2023-12-07T06:55:50;36.90;;;18.10;;
2111;SDS011;1062;52.538;13.400;2023-12-07T06:58:15;33.07;;;18.73;;
2111;SDS011;1062;52.538;13.400;2023-12-07T07:00:41;32.73;;;17.80;;
2111;SDS011;1062;52.538;13.400;2023-12-07T07:03:06;29.33;;;17.77;;
2111;SDS011;1062;52.538;13.400;2023-12-07T07:05:32;32.10;;;18.20;;
2111;SDS011;1062;52.538;13.400;2023-12-07T07:07:58;27.43;;;17.40;;
2111;SDS011;1062;52.538;13.400;2023-12-07T07:10:23;30.30;;;16.87;;
2111;SDS011;1062;52.538;13.400;2023-12-07T07:12:49;27.73;;;15.53;;
2111;SDS011;1062;52.538;13.400;2023-12-07T07:15:15;26.37;;;16.30;;
2111;SDS011;1062;52.538;13.400;2023-12-07T07:17:41;37.50;;;19.00;;
2111;SDS011;1062;52.538;13.400;2023-12-07T07:20:07;32.90;;;20.13;;
2111;SDS011;1062;52.538;13.400;2023-12-07T07:22:33;29.70;;;15.50;;
2111;SDS011;1062;52.538;13.400;2023-12-07T07:24:59;28.20;;;16.50;;
2111;SDS011;1062;52.538;13.400;2023-12-07T07:27:25;34.73;;;17.00;;
2111;SDS011;1062;52.538;13.400;2023-12-07T07:29:50;33.07;;;18.53;;
2111;SDS011;1062;52.538;13.400;2023-12-07T07:32:17;28.17;;;16.60;;
2111;SDS011;1062;52.538;13.400;2023-12-07T07:34:42;25.40;;;15.40;;
2111;SDS011;1062;52.538;13.400;2023-12-07T07:37:08;35.57;;;18.57;;
2111;SDS011;1062;52.538;13.400;2023-12-07T07:39:34;34.43;;;18.47;;
2111;SDS011;1062;52.538;13.400;2023-12-07T07:42:00;27.17;;;18.07;;
2111;SDS011;1062;52.538;13.400;2023-12-07T07:44:25;33.27;;;17.83;;
2111;SDS011;1062;52.538;13.400;2023-12-07T07:46:51;31.50;;;18.70;;
2111;SDS011;1062;52.538;13.400;2023-12-07T07:49:16;39.80;;;19.80;;
2111;SDS011;1062;52.538;13.400;2023-12-07T07:51:42;34.17;;;17.73;;
2111;SDS011;1062;52.538;13.400;2023-12-07T07:54:08;40.07;;;18.20;;
2111;SDS011;1062;52.538;13.400;2023-12-07T07:56:33;31.97;;;17.87;;
2111;SDS011;1062;52.538;13.400;2023-12-07T07:58:59;32.80;;;16.93;;
2111;SDS011;1062;52.538;13.400;2023-12-07T08:01:25;35.10;;;18.40;;
2111;SDS011;1062;52.538;13.400;2023-12-07T08:03:51;34.87;;;18.63;;
2111;SDS011;1062;52.538;13.400;2023-12-07T08:06:17;24.67;;;14.83;;
2111;SDS011;1062;52.538;13.400;2023-12-07T08:08:43;32.50;;;19.07;;
2111;SDS011;1062;52.538;13.400;2023-12-07T08:11:08;30.93;;;19.00;;
2111;SDS011;1062;52.538;13.400;2023-12-07T08:13:34;39.87;;;18.13;;
2111;SDS011;1062;52.538;13.400;2023-12-07T08:15:59;30.37;;;19.40;;
2111;SDS011;1062;52.538;13.400;2023-12-07T08:18:25;40.13;;;21.23;;
2111;SDS011;1062;52.538;13.400;2023-12-07T08:20:51;28.47;;;17.13;;
2111;SDS011;1062;52.538;13.400;2023-12-07T08:23:17;26.63;;;17.00;;
2111;SDS011;1062;52.538;13.400;2023-12-07T08:25:42;33.77;;;17.63;;
2111;SDS011;1062;52.538;13.400;2023-12-07T08:28:08;33.80;;;18.80;;
2111;SDS011;1062;52.538;13.400;2023-12-07T08:30:35;29.63;;;18.20;;
2111;SDS011;1062;52.538;13.400;2023-12-07T08:33:01;27.10;;;18.03;;
2111;SDS011;1062;52.538;13.400;2023-12-07T08:35:26;33.30;;;17.77;;
2111;SDS011;1062;52.538;13.400;2023-12-07T08:37:52;27.77;;;18.33;;
2111;SDS011;1062;52.538;13.400;2023-12-07T08:40:18;37.17;;;19.57;;
2111;SDS011;1062;52.538;13.400;2023-12-07T08:42:45;29.70;;;16.50;;
2111;SDS011;1062;52.538;13.400;2023-12-07T08:45:12;28.33;;;17.20;;
2111;SDS011;1062;52.538;13.400;2023-12-07T08:47:39;30.43;;;17.50;;
2111;SDS011;1062;52.538;13.400;2023-12-07T08:50:05;28.13;;;17.00;;
2111;SDS011;1062;52.538;13.400;2023-12-07T08:52:32;32.70;;;18.40;;
2111;SDS011;1062;52.538;13.400;2023-12-07T08:54:58;25.63;;;15.30;;
2111;SDS011;1062;52.538;13.400;2023-12-07T08:57:24;28.00;;;15.90;;
2111;SDS011;1062;52.538;13.400;2023-12-07T08:59:50;29.07;;;15.90;;
2111;SDS011;1062;52.538;13.400;2023-12-07T09:02:15;28.30;;;15.97;;
2111;SDS011;1062;52.538;13.400;2023-12-07T09:04:41;25.17;;;16.73;;
2111;SDS011;1062;52.538;13.400;2023-12-07T09:07:07;25.33;;;16.83;;
2111;SDS011;1062;52.538;13.400;2023-12-07T09:09:34;27.27;;;17.20;;
2111;SDS011;1062;52.538;13.400;2023-12-07T09:12:00;27.57;;;16.03;;
2111;SDS011;1062;52.538;13.400;2023-12-07T09:14:25;25.40;;;16.10;;
2111;SDS011;1062;52.538;13.400;2023-12-07T09:16:51;31.27;;;16.50;;
2111;SDS011;1062;52.538;13.400;2023-12-07T09:19:17;31.10;;;17.70;;
2111;SDS011;1062;52.538;13.400;2023-12-07T09:21:43;30.33;;;18.10;;
2111;SDS011;1062;52.538;13.400;2023-12-07T09:24:08;24.20;;;16.27;;
2111;SDS011;1062;52.538;13.400;2023-12-07T09:26:34;34.43;;;19.70;;
2111;SDS011;1062;52.538;13.400;2023-12-07T09:29:01;28.77;;;16.77;;
2111;SDS011;1062;52.538;13.400;2023-12-07T09:31:27;30.57;;;18.37;;
2111;SDS011;1062;52.538;13.400;2023-12-07T09:33:53;31.87;;;18.40;;
2111;SDS011;1062;52.538;13.400;2023-12-07T09:36:18;39.37;;;21.43;;
2111;SDS011;1062;52.538;13.400;2023-12-07T09:38:46;49.17;;;27.10;;
2111;SDS011;1062;52.538;13.400;2023-12-07T09:41:11;43.70;;;25.17;;
2111;SDS011;1062;52.538;13.400;2023-12-07T09:43:37;29.90;;;19.47;;
2111;SDS011;1062;52.538;13.400;2023-12-07T09:46:03;24.47;;;15.47;;
2111;SDS011;1062;52.538;13.400;2023-12-07T09:48:31;32.13;;;18.20;;
2111;SDS011;1062;52.538;13.400;2023-12-07T09:50:57;28.13;;;15.27;;
2111;SDS011;1062;52.538;13.400;2023-12-07T09:53:25;25.57;;;17.30;;
2111;SDS011;1062;52.538;13.400;2023-12-07T09:55:54;27.17;;;14.33;;
2111;SDS011;1062;52.538;13.400;2023-12-07T09:58:19;26.33;;;14.40;;
2111;SDS011;1062;52.538;13.400;2023-12-07T10:00:46;19.47;;;13.20;;
2111;SDS011;1062;52.538;13.400;2023-12-07T10:03:20;25.40;;;15.50;;
2111;SDS011;1062;52.538;13.400;2023-12-07T10:05:57;20.70;;;12.70;;
2111;SDS011;1062;52.538;13.400;2023-12-07T10:08:25;18.73;;;12.73;;
2111;SDS011;1062;52.538;13.400;2023-12-07T10:11:01;23.60;;;13.37;;
2111;SDS011;1062;52.538;13.400;2023-12-07T10:13:29;25.57;;;16.50;;
2111;SDS011;1062;52.538;13.400;2023-12-07T10:16:16;24.83;;;16.20;;
2111;SDS011;1062;52.538;13.400;2023-12-07T10:18:41;24.40;;;13.17;;
2111;SDS011;1062;52.538;13.400;2023-12-07T10:21:07;25.27;;;15.13;;
2111;SDS011;1062;52.538;13.400;2023-12-07T10:23:34;30.03;;;16.00;;
2111;SDS011;1062;52.538;13.400;2023-12-07T10:26:07;29.90;;;16.17;;
2111;SDS011;1062;52.538;13.400;2023-12-07T10:28:36;32.63;;;17.10;;
2111;SDS011;1062;52.538;13.400;2023-12-07T10:31:07;25.30;;;16.83;;
2111;SDS011;1062;52.538;13.400;2023-12-07T10:33:34;24.93;;;15.37;;
2111;SDS011;1062;52.538;13.400;2023-12-07T10:35:59;29.23;;;17.23;;
2111;SDS011;1062;52.538;13.400;2023-12-07T10:38:28;31.40;;;17.80;;
2111;SDS011;1062;52.538;13.400;2023-12-07T10:41:04;27.30;;;16.57;;
2111;SDS011;1062;52.538;13.400;2023-12-07T10:43:35;22.60;;;16.03;;
2111;SDS011;1062;52.538;13.400;2023-12-07T10:46:03;23.77;;;14.00;;
2111;SDS011;1062;52.538;13.400;2023-12-07T10:48:31;29.83;;;15.57;;
2111;SDS011;1062;52.538;13.400;2023-12-07T10:50:57;30.20;;;15.00;;
2111;SDS011;1062;52.538;13.400;2023-12-07T10:53:27;25.30;;;16.03;;
2111;SDS011;1062;52.538;13.400;2023-12-07T10:56:02;26.37;;;15.77;;
2111;SDS011;1062;52.538;13.400;2023-12-07T10:58:30;26.53;;;14.37;;
2111;SDS011;1062;52.538;13.400;2023-12-07T11:00:59;25.80;;;14.37;;
2111;SDS011;1062;52.538;13.400;2023-12-07T11:03:25;25.70;;;14.10;;
2111;SDS011;1062;52.538;13.400;2023-12-07T11:05:52;26.13;;;14.97;;
2111;SDS011;1062;52.538;13.400;2023-12-07T11:13:33;28.67;;;14.70;;
2111;SDS011;1062;52.538;13.400;2023-12-07T11:16:02;24.63;;;16.73;;
2111;SDS011;1062;52.538;13.400;2023-12-07T11:18:28;20.90;;;15.10;;
2111;SDS011;1062;52.538;13.400;2023-12-07T11:20:54;26.60;;;17.13;;
2111;SDS011;1062;52.538;13.400;2023-12-07T11:23:20;29.13;;;15.30;;
2111;SDS011;1062;52.538;13.400;2023-12-07T11:25:47;31.27;;;17.57;;
2111;SDS011;1062;52.538;13.400;2023-12-07T11:28:14;24.13;;;14.30;;
2111;SDS011;1062;52.538;13.400;2023-12-07T11:30:46;24.37;;;15.70;;
2111;SDS011;1062;52.538;13.400;2023-12-07T11:33:12;22.90;;;14.40;;
2111;SDS011;1062;52.538;13.400;2023-12-07T11:38:27;22.13;;;14.63;;
2111;SDS011;1062;52.538;13.400;2023-12-07T11:40:54;25.63;;;16.47;;
2111;SDS011;1062;52.538;13.400;2023-12-07T11:46:00;25.40;;;15.80;;
2111;SDS011;1062;52.538;13.400;2023-12-07T11:48:26;28.47;;;15.97;;
2111;SDS011;1062;52.538;13.400;2023-12-07T11:51:04;25.97;;;17.20;;
2111;SDS011;1062;52.538;13.400;2023-12-07T11:53:33;25.03;;;14.60;;
2111;SDS011;1062;52.538;13.400;2023-12-07T11:56:00;26.30;;;16.17;;
2111;SDS011;1062;52.538;13.400;2023-12-07T11:58:30;24.77;;;15.90;;
2111;SDS011;1062;52.538;13.400;2023-12-07T12:00:56;27.87;;;17.00;;
2111;SDS011;1062;52.538;13.400;2023-12-07T12:03:25;26.43;;;16.80;;
2111;SDS011;1062;52.538;13.400;2023-12-07T12:05:53;21.80;;;15.13;;
2111;SDS011;1062;52.538;13.400;2023-12-07T12:08:21;25.07;;;15.90;;
2111;SDS011;1062;52.538;13.400;2023-12-07T12:10:48;23.80;;;16.00;;
2111;SDS011;1062;52.538;13.400;2023-12-07T12:13:33;31.20;;;16.47;;
2111;SDS011;1062;52.538;13.400;2023-12-07T12:16:00;34.93;;;19.33;;
2111;SDS011;1062;52.538;13.400;2023-12-07T12:18:26;28.63;;;18.83;;
2111;SDS011;1062;52.538;13.400;2023-12-07T12:20:53;32.80;;;18.47;;
2111;SDS011;1062;52.538;13.400;2023-12-07T12:23:19;29.70;;;17.20;;
2111;SDS011;1062;52.538;13.400;2023-12-07T12:25:45;30.97;;;18.97;;
2111;SDS011;1062;52.538;13.400;2023-12-07T12:28:11;28.80;;;19.13;;
2111;SDS011;1062;52.538;13.400;2023-12-07T12:30:44;30.83;;;17.10;;
2111;SDS011;1062;52.538;13.400;2023-12-07T12:33:10;29.40;;;18.20;;
2111;SDS011;1062;52.538;13.400;2023-12-07T12:35:35;33.63;;;19.00;;
2111;SDS011;1062;52.538;13.400;2023-12-07T12:38:01;32.37;;;20.70;;
2111;SDS011;1062;52.538;13.400;2023-12-07T12:40:27;31.27;;;18.83;;
2111;SDS011;1062;52.538;13.400;2023-12-07T12:42:54;31.27;;;18.63;;
2111;SDS011;1062;52.538;13.400;2023-12-07T12:45:20;29.90;;;19.47;;
2111;SDS011;1062;52.538;13.400;2023-12-07T12:47:46;32.80;;;21.63;;
2111;SDS011;1062;52.538;13.400;2023-12-07T12:50:32;32.97;;;19.60;;
2111;SDS011;1062;52.538;13.400;2023-12-07T12:52:58;31.03;;;21.20;;
2111;SDS011;1062;52.538;13.400;2023-12-07T12:55:25;33.53;;;18.77;;
2111;SDS011;1062;52.538;13.400;2023-12-07T12:57:51;33.20;;;22.27;;
2111;SDS011;1062;52.538;13.400;2023-12-07T13:00:17;29.30;;;19.53;;
2111;SDS011;1062;52.538;13.400;2023-12-07T13:02:43;35.90;;;20.50;;
2111;SDS011;1062;52.538;13.400;2023-12-07T13:05:08;36.87;;;19.50;;
2111;SDS011;1062;52.538;13.400;2023-12-07T13:07:34;34.13;;;21.30;;
2111;SDS011;1062;52.538;13.400;2023-12-07T13:10:00;42.40;;;21.57;;
2111;SDS011;1062;52.538;13.400;2023-12-07T13:12:26;41.03;;;21.73;;
2111;SDS011;1062;52.538;13.400;2023-12-07T13:14:53;36.53;;;21.77;;
2111;SDS011;1062;52.538;13.400;2023-12-07T13:17:19;34.27;;;20.97;;
2111;SDS011;1062;52.538;13.400;2023-12-07T13:19:45;36.40;;;20.80;;
2111;SDS011;1062;52.538;13.400;2023-12-07T13:22:10;36.00;;;21.50;;
2111;SDS011;1062;52.538;13.400;2023-12-07T13:24:36;41.07;;;26.63;;
2111;SDS011;1062;52.538;13.400;2023-12-07T13:27:02;39.93;;;22.23;;
2111;SDS011;1062;52.538;13.400;2023-12-07T13:29:27;40.13;;;23.10;;
2111;SDS011;1062;52.538;13.400;2023-12-07T13:31:53;39.73;;;23.27;;
2111;SDS011;1062;52.538;13.400;2023-12-07T13:34:18;36.20;;;22.20;;
2111;SDS011;1062;52.538;13.400;2023-12-07T13:36:46;44.53;;;24.90;;
2111;SDS011;1062;52.538;13.400;2023-12-07T13:39:11;48.70;;;24.40;;
2111;SDS011;1062;52.538;13.400;2023-12-07T13:41:38;40.17;;;23.27;;
2111;SDS011;1062;52.538;13.400;2023-12-07T13:44:04;40.13;;;23.60;;
2111;SDS011;1062;52.538;13.400;2023-12-07T13:46:30;42.43;;;22.23;;
2111;SDS011;1062;52.538;13.400;2023-12-07T13:48:56;41.10;;;23.87;;
2111;SDS011;1062;52.538;13.400;2023-12-07T13:51:22;42.23;;;24.63;;
2111;SDS011;1062;52.538;13.400;2023-12-07T13:53:48;52.40;;;26.27;;
2111;SDS011;1062;52.538;13.400;2023-12-07T13:56:14;46.13;;;24.80;;
2111;SDS011;1062;52.538;13.400;2023-12-07T13:58:40;43.90;;;25.53;;
2111;SDS011;1062;52.538;13.400;2023-12-07T14:01:06;47.90;;;27.40;;
2111;SDS011;1062;52.538;13.400;2023-12-07T14:03:32;48.20;;;25.90;;
2111;SDS011;1062;52.538;13.400;2023-12-07T14:05:57;45.17;;;25.87;;
2111;SDS011;1062;52.538;13.400;2023-12-07T14:08:23;45.20;;;25.80;;
2111;SDS011;1062;52.538;13.400;2023-12-07T14:10:51;48.50;;;25.00;;
2111;SDS011;1062;52.538;13.400;2023-12-07T14:13:16;49.27;;;27.03;;
2111;SDS011;1062;52.538;13.400;2023-12-07T14:15:42;52.37;;;27.43;;
2111;SDS011;1062;52.538;13.400;2023-12-07T14:18:08;48.50;;;26.87;;
2111;SDS011;1062;52.538;13.400;2023-12-07T14:20:34;50.80;;;27.33;;
2111;SDS011;1062;52.538;13.400;2023-12-07T14:22:59;46.10;;;23.23;;
2111;SDS011;1062;52.538;13.400;2023-12-07T14:25:30;47.00;;;27.10;;
2111;SDS011;1062;52.538;13.400;2023-12-07T14:27:55;51.73;;;25.60;;
2111;SDS011;1062;52.538;13.400;2023-12-07T14:30:21;56.60;;;28.00;;
2111;SDS011;1062;52.538;13.400;2023-12-07T14:32:47;59.03;;;27.37;;
2111;SDS011;1062;52.538;13.400;2023-12-07T14:35:17;49.63;;;29.53;;
2111;SDS011;1062;52.538;13.400;2023-12-07T14:37:43;47.23;;;25.80;;
2111;SDS011;1062;52.538;13.400;2023-12-07T14:40:09;48.70;;;26.60;;